Time;durP1;ratioP1;P1;durP2;ratioP2;P2;SDS_P1;SDS_P2;PMS_P1;PMS_P2;Temp;Humidity;BMP_temperature;BMP_pressure;BME280_temperature;BME280_humidity;BME280_pressure;Samples;Min_cycle;Max_cycle;Signal;HPM_P1;HPM_P2
2021/12/23 00:02:38;;;;;;;25.52;14.07;;;-3.20;99.90;;;;;;5032134;28;20048;-68
2021/12/23 00:05:14;;;;;;;25.17;13.20;;;-3.20;99.90;;;;;;5029059;28;20636;-67
2021/12/23 00:07:47;;;;;;;24.85;13.77;;;-3.20;99.90;;;;;;5029771;28;20049;-67
2021/12/23 00:10:15;;;;;;;27.80;14.55;;;-3.10;99.90;;;;;;5027591;28;20041;-68
2021/12/23 00:12:45;;;;;;;26.02;14.30;;;-3.10;99.90;;;;;;5031391;28;20051;-67
2021/12/23 00:15:49;;;;;;;22.23;12.80;;;-3.10;99.90;;;;;;5030623;28;20463;-67
2021/12/23 00:18:19;;;;;;;25.48;13.23;;;-3.10;99.90;;;;;;5030428;28;20045;-67
2021/12/23 00:23:28;;;;;;;23.63;13.27;;;-3.10;99.90;;;;;;5016533;28;20037;-68
2021/12/23 00:26:01;;;;;;;34.40;18.60;;;-3.10;99.90;;;;;;5028577;28;20458;-68
2021/12/23 00:28:30;;;;;;;32.60;18.13;;;-3.00;99.90;;;;;;5028490;28;20041;-68
2021/12/23 00:31:07;;;;;;;26.55;14.13;;;-3.00;99.90;;;;;;5029350;28;20038;-68
2021/12/23 00:33:39;;;;;;;25.42;14.27;;;-3.00;99.90;;;;;;5030910;28;20076;-68
2021/12/23 00:36:10;;;;;;;23.70;13.43;;;-3.00;99.90;;;;;;5023831;28;20415;-68
2021/12/23 00:38:44;;;;;;;26.33;14.60;;;-3.00;99.90;;;;;;5028221;28;20092;-67
2021/12/23 00:41:13;;;;;;;27.98;14.52;;;-2.90;99.90;;;;;;5029835;28;20045;-68
2021/12/23 00:43:40;;;;;;;26.25;13.95;;;-3.00;99.90;;;;;;5028835;28;20159;-68
2021/12/23 00:46:08;;;;;;;27.25;14.82;;;-3.00;99.90;;;;;;5028909;28;20041;-68
2021/12/23 00:48:35;;;;;;;25.67;14.60;;;-2.90;99.90;;;;;;5028219;28;20046;-68
2021/12/23 00:51:04;;;;;;;29.48;15.60;;;-3.00;99.90;;;;;;5028740;28;20038;-68
2021/12/23 00:53:40;;;;;;;27.92;14.50;;;-2.90;99.90;;;;;;5026264;28;20041;-68
2021/12/23 00:56:12;;;;;;;29.10;14.85;;;-2.90;99.90;;;;;;5023993;28;20494;-68
2021/12/23 00:58:39;;;;;;;;;;;-2.90;99.90;;;;;;5033082;28;20053;-68
2021/12/23 01:01:07;;;;;;;24.63;13.80;;;-2.90;99.90;;;;;;5027229;28;19947;-68
2021/12/23 01:03:35;;;;;;;22.25;12.60;;;-2.80;99.90;;;;;;5028123;28;20436;-68
2021/12/23 01:06:03;;;;;;;25.00;13.18;;;-2.80;99.90;;;;;;5029376;28;20050;-67
2021/12/23 01:08:31;;;;;;;23.75;13.02;;;-2.70;99.90;;;;;;5029026;28;20046;-68
2021/12/23 01:11:00;;;;;;;22.92;13.60;;;-2.70;99.90;;;;;;5029481;28;20400;-67
2021/12/23 01:13:29;;;;;;;24.77;13.65;;;-2.70;99.90;;;;;;5029393;28;20047;-67
2021/12/23 01:16:01;;;;;;;25.45;13.52;;;-2.70;99.90;;;;;;5024082;28;20041;-68
2021/12/23 01:18:44;;;;;;;21.25;12.98;;;-2.70;99.90;;;;;;5029932;28;20042;-68
2021/12/23 01:21:18;;;;;;;27.83;13.95;;;-2.70;99.90;;;;;;5054368;28;20136;-68
2021/12/23 01:23:53;;;;;;;21.50;12.43;;;-2.60;99.90;;;;;;5014278;28;20046;-68
2021/12/23 01:26:22;;;;;;;24.40;12.90;;;-2.60;99.90;;;;;;5019763;28;20049;-68
2021/12/23 01:28:53;;;;;;;25.45;14.07;;;-2.60;99.90;;;;;;5030133;28;20492;-68
2021/12/23 01:31:23;;;;;;;20.95;12.20;;;-2.50;99.90;;;;;;5028573;28;20033;-68
2021/12/23 01:33:50;;;;;;;26.50;16.00;;;-2.50;99.90;;;;;;5029081;28;20088;-68
2021/12/23 01:36:18;;;;;;;24.10;12.95;;;-2.50;99.90;;;;;;5028231;28;20091;-68
2021/12/23 01:38:45;;;;;;;25.92;13.48;;;-2.50;99.90;;;;;;5028124;28;20037;-68
2021/12/23 01:41:13;;;;;;;25.15;13.32;;;-2.40;99.90;;;;;;5028069;28;20496;-68
2021/12/23 01:43:40;;;;;;;25.80;14.35;;;-2.40;99.90;;;;;;5025891;28;20551;-68
2021/12/23 01:46:13;;;;;;;23.48;13.13;;;-2.50;99.90;;;;;;5029422;28;20492;-68
2021/12/23 01:48:42;;;;;;;24.42;13.65;;;-2.50;99.90;;;;;;5029486;28;20095;-68
2021/12/23 01:51:11;;;;;;;21.25;13.52;;;-2.40;99.90;;;;;;5028666;28;20132;-68
2021/12/23 01:53:38;;;;;;;24.08;13.40;;;-2.50;99.90;;;;;;5027891;28;20037;-68
2021/12/23 01:56:06;;;;;;;25.48;14.98;;;-2.50;99.90;;;;;;5025987;28;20045;-68
2021/12/23 01:58:41;;;;;;;23.60;12.52;;;-2.50;99.90;;;;;;5034673;28;20098;-68
2021/12/23 02:01:09;;;;;;;21.50;12.20;;;-2.50;99.90;;;;;;5028348;28;20045;-68
2021/12/23 02:03:38;;;;;;;26.95;13.80;;;-2.50;99.90;;;;;;5029196;28;20073;-69
2021/12/23 02:06:05;;;;;;;25.75;14.90;;;-2.60;99.90;;;;;;5027973;28;20140;-68
2021/12/23 02:08:34;;;;;;;22.77;13.48;;;-2.60;99.90;;;;;;5029586;28;20427;-68
2021/12/23 02:11:04;;;;;;;23.27;13.23;;;-2.60;99.90;;;;;;5029558;28;20404;-68
2021/12/23 02:13:32;;;;;;;25.38;14.13;;;-2.60;99.90;;;;;;5029359;28;20548;-67
2021/12/23 02:16:00;;;;;;;21.40;13.13;;;-2.50;99.90;;;;;;5029243;28;20037;-67
2021/12/23 02:18:28;;;;;;;25.45;14.38;;;-2.50;99.90;;;;;;5027031;28;20456;-68
2021/12/23 02:20:56;;;;;;;24.90;14.23;;;-2.50;99.90;;;;;;5028764;28;20553;-67
2021/12/23 02:23:25;;;;;;;24.60;14.32;;;-2.50;99.90;;;;;;5024028;28;20049;-69
2021/12/23 02:25:52;;;;;;;25.88;13.32;;;-2.50;99.90;;;;;;5029345;28;20053;-67
2021/12/23 02:28:22;;;;;;;26.05;13.93;;;-2.50;99.90;;;;;;5028245;28;20049;-67
2021/12/23 02:30:51;;;;;;;23.27;13.88;;;-2.50;99.90;;;;;;5028851;28;20055;-68
2021/12/23 02:33:22;;;;;;;26.13;14.35;;;-2.50;99.90;;;;;;5027570;28;20116;-67
2021/12/23 02:35:51;;;;;;;25.27;14.43;;;-2.50;99.90;;;;;;5028849;28;20038;-67
2021/12/23 02:38:18;;;;;;;27.83;14.18;;;-2.50;99.90;;;;;;5028600;28;20076;-68
2021/12/23 02:40:46;;;;;;;25.77;14.38;;;-2.50;99.90;;;;;;5028545;28;20053;-68
2021/12/23 02:43:25;;;;;;;26.92;15.18;;;-2.50;99.90;;;;;;5028182;28;20052;-67
2021/12/23 02:45:55;;;;;;;25.25;14.95;;;-2.50;99.90;;;;;;5029037;28;20046;-68
2021/12/23 02:48:29;;;;;;;27.02;14.65;;;-2.40;99.90;;;;;;5028343;28;20464;-68
2021/12/23 02:50:57;;;;;;;29.15;16.00;;;-2.40;99.90;;;;;;5028692;28;20046;-67
2021/12/23 02:53:25;;;;;;;24.40;14.95;;;-2.40;99.90;;;;;;5014626;28;20053;-68
2021/12/23 02:55:58;;;;;;;26.63;14.98;;;-2.50;99.90;;;;;;5028600;28;20037;-67
2021/12/23 02:58:25;;;;;;;28.13;15.75;;;-2.40;99.90;;;;;;5030879;28;20492;-68
2021/12/23 03:00:54;;;;;;;24.42;14.82;;;-2.40;99.90;;;;;;5010292;28;20489;-67
2021/12/23 03:03:22;;;;;;;27.52;15.52;;;-2.50;99.90;;;;;;5008691;28;20062;-67
2021/12/23 03:05:51;;;;;;;28.55;14.93;;;-2.40;99.90;;;;;;5025241;28;20104;-68
2021/12/23 03:08:40;;;;;;;27.42;16.35;;;-2.40;99.90;;;;;;5028149;28;20056;-68
2021/12/23 03:11:10;;;;;;;32.15;17.40;;;-2.40;99.90;;;;;;5028709;28;20071;-69
2021/12/23 03:13:38;;;;;;;27.33;16.20;;;-2.40;99.90;;;;;;5028825;28;20520;-69
2021/12/23 03:16:07;;;;;;;28.70;15.85;;;-2.40;99.90;;;;;;5029079;28;20041;-67
2021/12/23 03:18:35;;;;;;;29.27;16.30;;;-2.40;99.90;;;;;;5011231;28;20069;-68
2021/12/23 03:21:04;;;;;;;32.60;17.13;;;-2.40;99.90;;;;;;5028160;28;20455;-69
2021/12/23 03:23:32;;;;;;;35.88;17.75;;;-2.50;99.90;;;;;;5027383;28;20064;-68
2021/12/23 03:26:00;;;;;;;29.85;17.13;;;-2.50;99.90;;;;;;5028073;28;20054;-68
2021/12/23 03:28:28;;;;;;;30.30;17.33;;;-2.40;99.90;;;;;;5028372;28;20045;-68
2021/12/23 03:30:55;;;;;;;30.20;17.27;;;-2.40;99.90;;;;;;5028204;28;20132;-67
2021/12/23 03:33:23;;;;;;;32.90;18.23;;;-2.40;99.90;;;;;;5027495;28;20092;-68
2021/12/23 03:35:50;;;;;;;30.77;17.13;;;-2.50;99.90;;;;;;5026661;28;20053;-68
2021/12/23 03:38:18;;;;;;;30.60;16.80;;;-2.50;99.90;;;;;;5026529;28;20040;-68
2021/12/23 03:40:47;;;;;;;29.42;17.05;;;-2.60;99.90;;;;;;5027137;28;20045;-68
2021/12/23 03:43:16;;;;;;;33.35;18.70;;;-2.60;99.90;;;;;;5027358;28;20451;-68
2021/12/23 03:45:46;;;;;;;29.15;16.70;;;-2.60;99.90;;;;;;5030724;28;20504;-67
2021/12/23 03:48:15;;;;;;;32.80;18.00;;;-2.70;99.90;;;;;;5032692;28;20046;-68
2021/12/23 03:50:44;;;;;;;29.23;17.17;;;-2.70;99.90;;;;;;5030172;28;20575;-67
2021/12/23 03:53:12;;;;;;;28.98;17.52;;;-2.70;99.90;;;;;;4993173;28;20049;-68
2021/12/23 03:55:40;;;;;;;31.65;17.60;;;-2.80;99.90;;;;;;5031624;28;20041;-68
2021/12/23 03:58:07;;;;;;;33.72;19.58;;;-2.70;99.90;;;;;;5036221;28;20037;-67
2021/12/23 04:00:35;;;;;;;33.60;18.10;;;-2.70;99.90;;;;;;5031812;28;20460;-68
2021/12/23 04:03:03;;;;;;;35.15;19.13;;;-2.80;99.90;;;;;;5030113;28;20408;-68
2021/12/23 04:05:31;;;;;;;30.23;18.00;;;-2.80;99.90;;;;;;5030022;28;20153;-68
2021/12/23 04:07:58;;;;;;;32.78;19.05;;;-2.80;99.90;;;;;;5031667;28;20045;-68
2021/12/23 04:10:26;;;;;;;32.78;18.38;;;-2.80;99.90;;;;;;5029881;28;20582;-68
2021/12/23 04:12:54;;;;;;;30.52;17.98;;;-2.80;99.90;;;;;;5031356;28;20048;-69
2021/12/23 04:15:21;;;;;;;35.25;19.35;;;-2.80;99.90;;;;;;5030113;28;20116;-68
2021/12/23 04:17:49;;;;;;;36.35;19.38;;;-2.80;99.90;;;;;;5029781;28;20093;-68
2021/12/23 04:20:23;;;;;;;36.63;19.73;;;-2.80;99.90;;;;;;5031433;28;20038;-69
2021/12/23 04:22:53;;;;;;;34.58;19.92;;;-2.80;99.90;;;;;;5032032;28;20053;-68
2021/12/23 04:25:23;;;;;;;32.40;19.58;;;-2.80;99.90;;;;;;5029519;28;20048;-68
2021/12/23 04:27:53;;;;;;;36.03;20.23;;;-2.80;99.90;;;;;;5030397;28;20049;-68
2021/12/23 04:30:22;;;;;;;36.88;19.33;;;-2.90;99.90;;;;;;5030875;28;20041;-68
2021/12/23 04:32:51;;;;;;;38.03;20.42;;;-2.90;99.90;;;;;;5034670;28;20053;-68
2021/12/23 04:35:18;;;;;;;35.10;19.77;;;-3.00;99.90;;;;;;5030618;28;20403;-68
2021/12/23 04:37:45;;;;;;;37.70;20.42;;;-3.00;99.90;;;;;;5029211;28;20057;-68
2021/12/23 04:40:14;;;;;;;40.42;20.40;;;-3.10;99.90;;;;;;5029336;28;20044;-68
2021/12/23 04:42:41;;;;;;;35.55;20.92;;;-3.10;99.90;;;;;;5029938;28;20042;-68
2021/12/23 04:45:09;;;;;;;33.80;19.58;;;-3.10;99.90;;;;;;5029450;28;20048;-68
2021/12/23 04:47:37;;;;;;;37.50;20.23;;;-3.20;99.90;;;;;;5030291;28;20037;-68
2021/12/23 04:50:07;;;;;;;37.33;21.00;;;-3.20;99.90;;;;;;5030418;28;20051;-68
2021/12/23 04:52:35;;;;;;;30.42;18.40;;;-3.20;99.90;;;;;;5008055;28;20053;-68
2021/12/23 04:55:02;;;;;;;38.97;21.75;;;-3.10;99.90;;;;;;5024969;28;20493;-68
2021/12/23 04:57:30;;;;;;;37.13;20.58;;;-3.20;99.90;;;;;;5031969;28;20045;-68
2021/12/23 04:59:57;;;;;;;42.78;23.33;;;-3.30;99.90;;;;;;5031455;28;20042;-68
2021/12/23 05:02:25;;;;;;;41.30;22.83;;;-3.30;99.90;;;;;;5029636;28;20079;-68
2021/12/23 05:04:52;;;;;;;39.72;22.95;;;-3.30;99.90;;;;;;5038730;28;20057;-68
2021/12/23 05:07:20;;;;;;;39.95;23.05;;;-3.20;99.90;;;;;;5025243;28;20068;-69
2021/12/23 05:09:47;;;;;;;43.20;23.75;;;-3.30;99.90;;;;;;5027255;28;20060;-69
2021/12/23 05:12:15;;;;;;;43.85;23.30;;;-3.20;99.90;;;;;;5029939;28;20041;-69
2021/12/23 05:14:42;;;;;;;44.72;23.98;;;-3.30;99.90;;;;;;5015311;28;20115;-69
2021/12/23 05:17:09;;;;;;;46.03;24.27;;;-3.30;99.90;;;;;;5028392;28;20068;-69
2021/12/23 05:19:36;;;;;;;48.17;25.63;;;-3.30;99.90;;;;;;5029113;28;20049;-69
2021/12/23 05:22:04;;;;;;;45.00;24.58;;;-3.30;99.90;;;;;;5020838;28;20052;-69
2021/12/23 05:24:32;;;;;;;43.47;23.08;;;-3.30;99.90;;;;;;5029304;28;20447;-69
2021/12/23 05:26:59;;;;;;;44.40;24.25;;;-3.40;99.90;;;;;;5032446;28;20049;-69
2021/12/23 05:29:27;;;;;;;49.58;25.55;;;-3.40;99.90;;;;;;5028714;28;20048;-69
2021/12/23 05:31:54;;;;;;;48.17;24.48;;;-3.50;99.90;;;;;;5028728;28;20087;-69
2021/12/23 05:34:21;;;;;;;45.38;24.95;;;-3.50;99.90;;;;;;5028305;28;20057;-69
2021/12/23 05:36:49;;;;;;;48.50;25.95;;;-3.40;99.90;;;;;;5028285;28;20506;-69
2021/12/23 05:39:16;;;;;;;44.03;25.42;;;-3.30;99.90;;;;;;5027622;28;20057;-68
2021/12/23 05:41:43;;;;;;;46.17;25.25;;;-3.30;99.90;;;;;;5028291;28;20045;-69
2021/12/23 05:44:10;;;;;;;50.15;25.83;;;-3.20;99.90;;;;;;5029405;28;20581;-69
2021/12/23 05:46:38;;;;;;;48.53;25.40;;;-3.20;99.90;;;;;;5027191;28;20049;-69
2021/12/23 05:49:05;;;;;;;45.10;24.25;;;-3.20;99.90;;;;;;5029200;28;20151;-69
2021/12/23 05:51:33;;;;;;;50.15;25.73;;;-3.20;99.90;;;;;;5029480;28;20038;-68
2021/12/23 05:54:01;;;;;;;49.78;25.63;;;-3.20;99.90;;;;;;5030258;28;20045;-69
2021/12/23 05:56:32;;;;;;;50.88;26.38;;;-3.20;99.90;;;;;;5028615;28;20459;-68
2021/12/23 05:58:59;;;;;;;44.70;23.83;;;-3.20;99.90;;;;;;5025937;28;20045;-68
2021/12/23 06:01:26;;;;;;;49.35;25.85;;;-3.20;99.90;;;;;;5029609;28;20499;-68
2021/12/23 06:03:54;;;;;;;47.75;23.83;;;-3.40;99.90;;;;;;5027899;28;20135;-69
2021/12/23 06:06:21;;;;;;;48.15;24.67;;;-3.40;99.90;;;;;;5052828;28;20412;-69
2021/12/23 06:08:49;;;;;;;52.78;26.30;;;-3.40;99.90;;;;;;5029633;28;20103;-69
2021/12/23 06:11:16;;;;;;;48.92;26.33;;;-3.50;99.90;;;;;;5029404;28;20052;-68
2021/12/23 06:13:43;;;;;;;44.58;23.92;;;-3.50;99.90;;;;;;5029598;28;20140;-68
2021/12/23 06:16:10;;;;;;;47.90;23.75;;;-3.50;99.90;;;;;;5028385;28;20116;-68
2021/12/23 06:18:38;;;;;;;49.30;24.50;;;-3.50;99.90;;;;;;5028012;28;20480;-68
2021/12/23 06:21:05;;;;;;;46.33;23.52;;;-3.50;99.90;;;;;;5029255;28;20042;-68
2021/12/23 06:23:32;;;;;;;50.00;25.30;;;-3.50;99.90;;;;;;5029031;28;20084;-68
2021/12/23 06:26:00;;;;;;;53.92;25.50;;;-3.40;99.90;;;;;;5029296;28;20099;-68
2021/12/23 06:28:27;;;;;;;51.17;24.85;;;-3.40;99.90;;;;;;5029160;28;20049;-68
2021/12/23 06:30:54;;;;;;;51.97;24.65;;;-3.30;99.90;;;;;;5028871;28;20038;-68
2021/12/23 06:33:21;;;;;;;51.03;25.10;;;-3.30;99.90;;;;;;5029429;28;20045;-68
2021/12/23 06:35:50;;;;;;;55.40;25.35;;;-3.30;99.90;;;;;;5029111;28;20048;-68
2021/12/23 06:38:17;;;;;;;54.60;26.25;;;-3.30;99.90;;;;;;5008706;28;20393;-68
2021/12/23 06:40:45;;;;;;;52.78;25.77;;;-3.30;99.90;;;;;;5026708;28;20034;-68
2021/12/23 06:43:12;;;;;;;54.97;25.02;;;-3.30;99.90;;;;;;5029186;28;20559;-68
2021/12/23 06:45:39;;;;;;;51.20;26.73;;;-3.20;99.90;;;;;;5029142;28;20079;-68
2021/12/23 06:48:07;;;;;;;57.10;26.13;;;-3.20;99.90;;;;;;5027911;28;20053;-68
2021/12/23 06:50:34;;;;;;;58.30;26.90;;;-3.20;99.90;;;;;;5029101;28;20045;-67
2021/12/23 06:53:01;;;;;;;53.83;26.60;;;-3.10;99.90;;;;;;5022510;28;20049;-67
2021/12/23 06:55:29;;;;;;;55.08;25.55;;;-3.10;99.90;;;;;;5026014;28;20389;-67
2021/12/23 06:57:57;;;;;;;51.50;25.23;;;-3.10;99.90;;;;;;5028536;28;20037;-67
2021/12/23 07:00:28;;;;;;;52.38;24.80;;;-3.10;99.90;;;;;;5028489;28;20133;-67
2021/12/23 07:02:56;;;;;;;49.08;23.02;;;-3.00;99.90;;;;;;5028552;28;20099;-67
2021/12/23 07:05:24;;;;;;;52.95;25.40;;;-3.00;99.90;;;;;;5028410;28;20542;-67
2021/12/23 07:10:21;;;;;;;53.38;24.77;;;-3.10;99.90;;;;;;5028434;28;20124;-67
2021/12/23 07:12:48;;;;;;;49.70;24.50;;;-3.10;99.90;;;;;;5028509;28;20052;-67
2021/12/23 07:15:16;;;;;;;56.20;26.70;;;-3.00;99.90;;;;;;5027611;28;20052;-67
2021/12/23 07:17:44;;;;;;;47.50;24.08;;;-2.90;99.90;;;;;;5025408;28;20057;-67
2021/12/23 07:20:11;;;;;;;46.75;23.05;;;-2.90;99.90;;;;;;5030197;28;20037;-67
2021/12/23 07:22:39;;;;;;;51.95;24.77;;;-2.90;99.90;;;;;;5032929;28;20046;-67
2021/12/23 07:25:07;;;;;;;44.15;22.77;;;-2.80;99.90;;;;;;5032291;28;20132;-67
2021/12/23 07:27:35;;;;;;;49.58;25.00;;;-2.80;99.90;;;;;;5032399;28;20049;-67
2021/12/23 07:30:03;;;;;;;48.30;23.95;;;-2.90;99.90;;;;;;5031004;28;20049;-67
2021/12/23 07:32:31;;;;;;;47.50;23.83;;;-2.80;99.90;;;;;;5032593;28;20377;-67
2021/12/23 07:34:58;;;;;;;44.72;24.08;;;-2.80;99.90;;;;;;5032448;28;20044;-67
2021/12/23 07:37:26;;;;;;;47.53;24.02;;;-2.80;99.90;;;;;;5032533;28;20048;-67
2021/12/23 07:39:55;;;;;;;48.50;22.67;;;-2.70;99.90;;;;;;5032569;28;20389;-67
2021/12/23 07:42:31;;;;;;;41.45;20.52;;;-2.60;99.90;;;;;;5024271;28;20455;-67
2021/12/23 07:45:01;;;;;;;49.47;23.13;;;-2.70;99.90;;;;;;5031541;28;20045;-67
2021/12/23 07:47:31;;;;;;;49.38;23.33;;;-2.70;99.90;;;;;;5030454;28;20037;-67
2021/12/23 07:50:00;;;;;;;50.83;23.77;;;-2.80;99.90;;;;;;5031639;28;20453;-67
2021/12/23 07:52:28;;;;;;;48.13;23.55;;;-2.80;99.90;;;;;;5031449;28;20041;-67
2021/12/23 07:54:56;;;;;;;54.03;24.48;;;-2.80;99.90;;;;;;5031277;28;20042;-67
2021/12/23 07:57:23;;;;;;;50.53;23.95;;;-2.80;99.90;;;;;;5032257;28;20042;-67
2021/12/23 07:59:51;;;;;;;45.53;22.83;;;-2.70;99.90;;;;;;5023502;28;20052;-67
2021/12/23 08:02:18;;;;;;;47.53;25.27;;;-2.60;99.90;;;;;;5027321;28;20045;-67
2021/12/23 08:04:46;;;;;;;48.58;24.25;;;-2.60;99.90;;;;;;5023293;28;20562;-67
2021/12/23 08:07:13;;;;;;;51.22;23.58;;;-2.60;99.90;;;;;;5009963;28;20050;-67
2021/12/23 08:09:40;;;;;;;50.92;22.80;;;-2.50;99.90;;;;;;5019670;28;20123;-67
2021/12/23 08:12:09;;;;;;;49.15;25.00;;;-2.60;99.90;;;;;;5018109;28;20137;-68
2021/12/23 08:14:37;;;;;;;53.28;24.02;;;-2.60;99.90;;;;;;5026293;28;20045;-67
2021/12/23 08:17:24;;;;;;;56.80;26.13;;;-2.60;99.90;;;;;;5030594;28;20484;-67
2021/12/23 08:19:51;;;;;;;45.40;22.92;;;-2.60;99.90;;;;;;5030000;28;20048;-67
2021/12/23 08:22:18;;;;;;;51.33;22.70;;;-2.50;99.90;;;;;;5030776;28;20046;-67
2021/12/23 08:24:46;;;;;;;47.10;23.77;;;-2.40;99.90;;;;;;5030405;28;20053;-67
2021/12/23 08:27:13;;;;;;;51.58;23.52;;;-2.40;99.90;;;;;;5029982;28;20037;-69
2021/12/23 08:29:41;;;;;;;51.90;24.00;;;-2.30;99.90;;;;;;5029359;28;20132;-68
2021/12/23 08:32:08;;;;;;;50.67;23.08;;;-2.30;99.90;;;;;;5029403;28;20049;-67
2021/12/23 08:34:36;;;;;;;46.65;23.13;;;-2.20;99.90;;;;;;5028114;28;20049;-68
2021/12/23 08:37:06;;;;;;;44.28;22.17;;;-2.10;99.90;;;;;;5029078;28;20124;-68
2021/12/23 08:39:34;;;;;;;49.55;23.67;;;-2.00;99.90;;;;;;5023084;28;20084;-68
2021/12/23 08:42:01;;;;;;;53.83;24.42;;;-2.00;99.90;;;;;;5029444;28;20492;-66
2021/12/23 08:44:29;;;;;;;60.95;29.15;;;-1.90;99.90;;;;;;5028704;28;20057;-67
2021/12/23 08:46:56;;;;;;;53.80;25.58;;;-1.80;99.90;;;;;;5024044;28;20046;-67
2021/12/23 08:49:24;;;;;;;46.40;22.85;;;-1.70;99.90;;;;;;5031610;28;20065;-68
2021/12/23 08:51:51;;;;;;;51.67;24.88;;;-1.60;99.90;;;;;;5028655;28;20068;-68
2021/12/23 08:54:19;;;;;;;45.92;22.80;;;-1.40;99.90;;;;;;5030236;28;20037;-68
2021/12/23 08:56:46;;;;;;;46.00;22.10;;;-1.40;99.90;;;;;;5030674;28;20049;-67
2021/12/23 08:59:14;;;;;;;47.47;23.77;;;-1.30;99.90;;;;;;5032362;28;20044;-69
2021/12/23 09:01:42;;;;;;;47.67;23.42;;;-1.30;99.90;;;;;;5012315;28;20428;-68
2021/12/23 09:04:10;;;;;;;46.60;21.98;;;-1.30;99.90;;;;;;5030276;28;20091;-68
2021/12/23 09:06:37;;;;;;;50.67;23.15;;;-1.20;99.90;;;;;;5029255;28;20484;-67
2021/12/23 09:09:07;;;;;;;48.63;23.00;;;-1.30;99.90;;;;;;5027642;28;20056;-69
2021/12/23 09:11:35;;;;;;;51.20;24.75;;;-1.30;99.90;;;;;;5011434;28;20707;-68
2021/12/23 09:14:03;;;;;;;48.50;22.83;;;-1.20;99.90;;;;;;5012791;28;20087;-67
2021/12/23 09:16:30;;;;;;;45.58;22.13;;;-1.10;99.90;;;;;;5029483;28;20101;-68
2021/12/23 09:18:58;;;;;;;47.08;23.17;;;-0.90;99.90;;;;;;5030923;28;20105;-68
2021/12/23 09:21:25;;;;;;;49.95;22.90;;;-0.90;99.90;;;;;;5030570;28;20487;-67
2021/12/23 09:24:00;;;;;;;49.55;23.90;;;-0.80;99.90;;;;;;5031208;28;20049;-67
2021/12/23 09:26:31;;;;;;;49.42;24.42;;;-0.80;99.90;;;;;;5030184;28;20038;-69
2021/12/23 09:29:09;;;;;;;56.88;26.95;;;-0.70;99.90;;;;;;5031450;28;20048;-69
2021/12/23 09:34:24;;;;;;;52.28;26.05;;;-0.50;99.90;;;;;;5032166;28;20541;-69
2021/12/23 09:36:52;;;;;;;54.22;23.25;;;-0.40;99.90;;;;;;5048568;28;20037;-67
2021/12/23 09:39:19;;;;;;;47.53;22.85;;;-0.40;99.90;;;;;;5029528;28;20052;-68
2021/12/23 09:41:47;;;;;;;44.80;22.48;;;-0.40;99.90;;;;;;5028851;28;20072;-67
2021/12/23 09:44:17;;;;;;;44.72;22.80;;;-0.30;99.90;;;;;;5031298;28;20045;-68
2021/12/23 09:46:45;;;;;;;49.90;23.15;;;-0.40;99.90;;;;;;5030122;28;20053;-69
2021/12/23 09:49:15;;;;;;;46.67;22.33;;;-0.30;99.90;;;;;;5030287;28;20068;-68
2021/12/23 09:51:44;;;;;;;51.80;22.88;;;-0.30;99.90;;;;;;5031791;28;20041;-66
2021/12/23 09:54:11;;;;;;;44.35;22.42;;;-0.20;99.90;;;;;;5012046;28;20041;-67
2021/12/23 09:56:39;;;;;;;48.15;24.08;;;-0.10;99.90;;;;;;5031037;28;20053;-68
2021/12/23 09:59:09;;;;;;;48.67;23.38;;;0.10;99.90;;;;;;5039559;28;20550;-68
2021/12/23 10:01:38;;;;;;;50.35;23.27;;;0.20;99.90;;;;;;5029832;28;20674;-68
2021/12/23 10:04:05;;;;;;;56.40;27.42;;;0.30;99.90;;;;;;5029241;28;20046;-68
2021/12/23 10:06:33;;;;;;;48.70;22.85;;;0.40;99.90;;;;;;5028285;28;20052;-67
2021/12/23 10:09:00;;;;;;;50.38;23.13;;;0.50;99.90;;;;;;5029685;28;20045;-68
2021/12/23 10:11:52;;;;;;;50.25;22.40;;;0.50;99.90;;;;;;5027814;28;20507;-68
2021/12/23 10:31:38;;;;;;;46.55;23.52;;;0.70;99.90;;;;;;5011065;28;20063;-68
2021/12/23 10:37:23;;;;;;;48.90;24.08;;;0.50;99.90;;;;;;5024456;28;20046;-69
2021/12/23 10:39:52;;;;;;;49.85;23.35;;;0.50;99.90;;;;;;5028800;28;20492;-68
2021/12/23 10:42:21;;;;;;;45.63;22.63;;;0.40;99.90;;;;;;5028481;28;20084;-68
2021/12/23 10:45:00;;;;;;;53.20;24.52;;;0.40;99.90;;;;;;5027333;28;20050;-68
2021/12/23 10:47:55;;;;;;;52.03;25.02;;;0.40;99.90;;;;;;5028542;28;20053;-68
2021/12/23 10:50:30;;;;;;;55.25;25.67;;;0.40;99.90;;;;;;5028270;28;20052;-67
2021/12/23 10:53:07;;;;;;;45.58;23.67;;;0.40;99.90;;;;;;5035364;28;20143;-69
2021/12/23 10:58:23;;;;;;;55.85;24.65;;;0.40;99.90;;;;;;5069234;28;20045;-68
2021/12/23 11:01:00;;;;;;;54.60;25.35;;;0.40;99.90;;;;;;5031415;28;20052;-68
2021/12/23 11:03:34;;;;;;;54.83;24.48;;;0.40;99.90;;;;;;5033457;28;20045;-69
2021/12/23 11:06:16;;;;;;;52.08;24.67;;;0.50;99.90;;;;;;5032735;28;20480;-69
2021/12/23 11:43:51;;;;;;;54.63;25.27;;;1.00;99.90;;;;;;5031632;28;20399;-67
2021/12/23 11:46:24;;;;;;;51.92;24.70;;;1.10;99.90;;;;;;5031239;28;20045;-67
2021/12/23 11:48:55;;;;;;;55.05;24.55;;;1.10;99.90;;;;;;5027703;28;20053;-67
2021/12/23 11:51:33;;;;;;;47.90;23.25;;;1.20;99.90;;;;;;5029448;28;20408;-67
2021/12/23 11:54:04;;;;;;;50.70;24.80;;;1.20;99.90;;;;;;5028651;28;20061;-67
2021/12/23 11:56:35;;;;;;;50.97;24.25;;;1.40;99.90;;;;;;5028826;28;20488;-67
2021/12/23 11:59:03;;;;;;;56.30;25.20;;;1.50;99.90;;;;;;5033367;28;20505;-67
2021/12/23 12:01:49;;;;;;;50.25;23.63;;;1.60;99.90;;;;;;5030578;28;20300;-67
2021/12/23 12:04:37;;;;;;;51.85;25.05;;;1.70;99.90;;;;;;5029154;28;20111;-67
2021/12/23 12:07:19;;;;;;;53.05;25.42;;;1.90;99.90;;;;;;5023293;28;20484;-67
2021/12/23 12:09:53;;;;;;;48.05;24.02;;;1.90;99.90;;;;;;5016873;28;20042;-67
2021/12/23 12:12:21;;;;;;;48.03;24.77;;;2.00;99.90;;;;;;5030192;28;20044;-68
2021/12/23 12:14:48;;;;;;;51.90;23.75;;;2.00;99.90;;;;;;5028319;28;20190;-68
2021/12/23 12:17:36;;;;;;;48.70;23.05;;;2.00;99.90;;;;;;5030200;28;20408;-68
2021/12/23 12:20:10;;;;;;;47.60;21.27;;;2.10;99.90;;;;;;5022349;28;20508;-68
2021/12/23 12:23:01;;;;;;;48.33;22.90;;;2.10;99.90;;;;;;5029769;28;20045;-68
2021/12/23 12:25:28;;;;;;;52.20;24.42;;;2.10;99.90;;;;;;5028466;28;20385;-68
2021/12/23 12:27:55;;;;;;;52.97;24.83;;;2.10;99.90;;;;;;5029775;28;20050;-68
2021/12/23 12:30:58;;;;;;;51.35;24.27;;;2.20;99.90;;;;;;5030523;28;20056;-68
2021/12/23 12:33:25;;;;;;;52.13;25.08;;;2.20;99.90;;;;;;5028294;28;20045;-68
2021/12/23 12:36:01;;;;;;;52.67;24.02;;;2.20;99.90;;;;;;5029623;28;20503;-68
2021/12/23 12:38:38;;;;;;;51.45;23.42;;;2.10;99.90;;;;;;5029421;28;20045;-68
2021/12/23 12:41:12;;;;;;;48.58;24.13;;;2.20;99.90;;;;;;5028090;28;20049;-68
2021/12/23 12:43:43;;;;;;;55.70;24.30;;;2.10;99.90;;;;;;5019092;28;20420;-68
2021/12/23 12:46:25;;;;;;;51.47;24.23;;;2.10;99.90;;;;;;4971527;28;1193484;-68
2021/12/23 12:48:58;;;;;;;53.95;25.17;;;2.00;99.90;;;;;;5030280;28;20045;-68
2021/12/23 12:51:38;;;;;;;49.50;23.58;;;2.00;99.90;;;;;;5030115;28;20500;-68
2021/12/23 12:54:09;;;;;;;50.45;22.85;;;2.00;99.90;;;;;;5027680;28;20042;-68
2021/12/23 12:56:43;;;;;;;59.20;25.20;;;2.00;99.90;;;;;;5027077;28;20599;-68
2021/12/23 12:59:12;;;;;;;48.35;24.08;;;2.00;99.90;;;;;;5031832;28;20324;-68
2021/12/23 13:01:48;;;;;;;53.10;24.48;;;2.00;99.90;;;;;;5028526;28;20056;-68
2021/12/23 13:04:31;;;;;;;50.60;25.35;;;2.10;99.90;;;;;;5029402;28;20492;-68
2021/12/23 13:07:14;;;;;;;50.85;24.70;;;2.10;99.90;;;;;;5030003;28;20380;-68
2021/12/23 13:10:14;;;;;;;52.30;23.17;;;2.10;99.90;;;;;;5028266;28;20057;-68
2021/12/23 13:13:11;;;;;;;52.67;24.85;;;2.10;99.90;;;;;;5029319;28;20397;-68
2021/12/23 13:16:18;;;;;;;49.00;22.95;;;2.10;99.90;;;;;;4987524;28;20560;-68
2021/12/23 13:18:45;;;;;;;55.90;25.08;;;2.10;99.90;;;;;;4987707;28;20492;-68
2021/12/23 13:21:21;;;;;;;52.17;24.88;;;2.10;99.90;;;;;;4987673;28;20038;-68
2021/12/23 13:23:48;;;;;;;53.45;23.58;;;2.10;99.90;;;;;;4987770;28;20050;-68
2021/12/23 13:26:18;;;;;;;49.22;23.70;;;2.10;99.90;;;;;;4988780;28;20152;-68
2021/12/23 13:28:50;;;;;;;51.90;24.48;;;2.10;99.90;;;;;;4987998;28;20054;-68
2021/12/23 13:31:26;;;;;;;56.22;25.20;;;2.10;99.90;;;;;;4986606;28;20264;-68
2021/12/23 13:34:03;;;;;;;57.35;25.70;;;2.10;99.90;;;;;;4970560;28;20034;-68
2021/12/23 13:36:41;;;;;;;57.05;25.98;;;2.10;99.90;;;;;;4970182;28;20174;-68
2021/12/23 13:39:12;;;;;;;55.85;25.73;;;2.10;99.90;;;;;;4986869;28;20166;-68
2021/12/23 13:41:41;;;;;;;53.05;24.40;;;2.00;99.90;;;;;;4985046;28;20050;-68
2021/12/23 13:44:30;;;;;;;50.38;24.65;;;2.00;99.90;;;;;;4986924;28;20102;-68
2021/12/23 13:47:07;;;;;;;51.53;24.17;;;2.00;99.90;;;;;;4987371;28;20533;-68
2021/12/23 13:49:36;;;;;;;53.08;25.40;;;2.10;99.90;;;;;;4975576;28;20501;-68
2021/12/23 13:52:23;;;;;;;58.88;27.15;;;2.00;99.90;;;;;;5027075;28;20042;-68